»·PEaware :: N22088 KBUR-KSNA

N22088 :: KBUR-KSNA

FLIGHT INFORMATION

Flight Status: Arrived
Operator: Privately registered:
United States
More flights under this callsign
Pilot: Ricardo J. (20992)
Aircraft: CESSNA 172 SKYHAWK
(C172)
More flights by this aircraft type
Origin: KBUR Bob Hope-Burbank
United States
Destination: KSNA John Wayne-Orange Co
United States
More flights between these airports :: More routes between these airports
Route: +ELMOO8 ELMOO V186 BAYJY V363 POXKU V8 SLI
File this flight plan on PilotEdge
Remarks:
Altitude:
(Current/Filed)
5,000ft
Speed:
(Current/Filed)
107kts
Departed: 11-Jan-19 05:32 PM
Arrived: 11-Jan-19 06:04 PM
Distance/Time
Traveled:
40nm/0:32
Distance/Time
To Go:
Arrived

Flight Plot

Page will automatically refresh every two minutes.


Map Options




Map Legend


Flown Route
Filed Route
Departure Airport
Arrival Airport
Navaid (VOR, NDB)
Fix

Horizontal Profiles

Position Reports

Time Latitude Longitude Heading Altitude Ground
Speed
11-Jan-19 16:59 34.196338 -118.367565 358 721ft 0kts
11-Jan-19 17:00 34.196338 -118.367565 358 721ft 0kts
11-Jan-19 17:01 34.196338 -118.367565 358 721ft 0kts
11-Jan-19 17:02 34.196338 -118.367565 358 721ft 0kts
11-Jan-19 17:03 34.196338 -118.367565 358 721ft 0kts
11-Jan-19 17:04 34.196338 -118.367565 358 721ft 0kts
11-Jan-19 17:05 34.196338 -118.367565 358 721ft 0kts
11-Jan-19 17:06 34.196338 -118.367565 358 721ft 0kts
11-Jan-19 17:07 34.196338 -118.367565 358 721ft 0kts
11-Jan-19 17:08 34.196338 -118.367565 358 721ft 0kts
11-Jan-19 17:09 34.196338 -118.367565 358 721ft 0kts
11-Jan-19 17:10 34.196338 -118.367565 358 721ft 0kts
11-Jan-19 17:11 34.196338 -118.367565 358 721ft 0kts
11-Jan-19 17:12 34.196338 -118.367565 358 721ft 0kts
11-Jan-19 17:13 34.196338 -118.367565 358 721ft 0kts
11-Jan-19 17:14 34.196338 -118.367565 358 721ft 0kts
11-Jan-19 17:15 34.196338 -118.367565 358 721ft 0kts
11-Jan-19 17:16 34.196338 -118.367565 358 721ft 0kts
11-Jan-19 17:17 34.196338 -118.367565 358 721ft 0kts
11-Jan-19 17:18 34.196338 -118.367565 358 721ft 0kts
11-Jan-19 17:19 34.196338 -118.367565 358 721ft 0kts
11-Jan-19 17:20 34.196338 -118.367565 358 721ft 0kts
11-Jan-19 17:21 34.196338 -118.367565 358 721ft 0kts
11-Jan-19 17:22 34.196338 -118.367565 358 721ft 0kts
11-Jan-19 17:23 34.196338 -118.367565 358 721ft 0kts
11-Jan-19 17:24 34.196338 -118.367565 358 721ft 0kts
11-Jan-19 17:25 34.196338 -118.367565 358 721ft 0kts
11-Jan-19 17:26 34.196977 -118.367648 358 723ft 0kts
11-Jan-19 17:27 34.197081 -118.369024 337 724ft 0kts
11-Jan-19 17:28 34.197081 -118.369024 337 724ft 0kts
11-Jan-19 17:29 34.197081 -118.369024 337 724ft 0kts
11-Jan-19 17:30 34.197450 -118.369116 0 725ft 7kts
11-Jan-19 17:31 34.198010 -118.359642 91 823ft 86kts
11-Jan-19 17:32 34.190218 -118.335139 136 1860ft 80kts
11-Jan-19 17:33 34.175802 -118.314439 135 2825ft 80kts
11-Jan-19 17:34 34.163452 -118.291934 120 3732ft 83kts
11-Jan-19 17:35 34.156094 -118.261165 117 4049ft 111kts
11-Jan-19 17:36 34.143835 -118.226617 116 4050ft 112kts
11-Jan-19 17:37 34.132138 -118.191556 115 4051ft 112kts
11-Jan-19 17:38 34.120905 -118.156596 115 4163ft 102kts
11-Jan-19 17:39 34.112467 -118.128594 114 5004ft 96kts
11-Jan-19 17:40 34.102316 -118.093838 114 5016ft 115kts
11-Jan-19 17:41 34.091250 -118.057403 115 5017ft 116kts
11-Jan-19 17:42 34.080110 -118.021086 114 5019ft 115kts
11-Jan-19 17:43 34.069108 -117.985283 115 5019ft 113kts
11-Jan-19 17:44 34.058357 -117.950401 115 5019ft 109kts
11-Jan-19 17:45 34.047892 -117.916391 115 5020ft 107kts
11-Jan-19 17:46 34.037479 -117.882688 115 5020ft 108kts
11-Jan-19 17:47 34.027057 -117.848898 115 5019ft 107kts
11-Jan-19 17:48 34.016605 -117.815131 115 5015ft 108kts
11-Jan-19 17:49 34.000291 -117.788272 169 4942ft 103kts
11-Jan-19 17:50 33.972529 -117.785139 179 4335ft 100kts
11-Jan-19 17:51 33.944082 -117.784203 181 3997ft 107kts
11-Jan-19 17:52 33.914169 -117.788638 191 3975ft 109kts
11-Jan-19 17:53 33.885372 -117.793947 191 3979ft 104kts
11-Jan-19 17:54 33.857312 -117.799602 191 3984ft 100kts
11-Jan-19 17:55 33.830917 -117.808531 197 3990ft 98kts
11-Jan-19 17:57 33.806286 -117.817934 196 3995ft 87kts
11-Jan-19 17:58 33.782871 -117.820092 177 3605ft 84kts
11-Jan-19 17:59 33.759560 -117.823796 191 2968ft 86kts
11-Jan-19 18:00 33.737196 -117.834236 197 2443ft 86kts
11-Jan-19 18:01 33.715957 -117.845176 200 1820ft 80kts
11-Jan-19 18:02 33.697095 -117.855781 200 1043ft 70kts
11-Jan-19 18:03 33.681069 -117.865445 202 78ft 62kts
11-Jan-19 18:04 33.674460 -117.868487 160 60ft 5kts
11-Jan-19 18:05 33.673769 -117.867287 120 60ft 0kts
11-Jan-19 18:06 33.673140 -117.866199 132 60ft 4kts
11-Jan-19 18:07 33.673128 -117.866183 136 60ft 0kts

Navigation Log

Ident Type
Flight plan parsing failed, navigation log unavailable